createdAt,value
2016-05-12T00:00:33.558Z,0
2016-05-12T00:01:34.060Z,0
2016-05-12T00:02:33.641Z,0
2016-05-12T00:03:33.675Z,0
2016-05-12T00:04:33.708Z,0
2016-05-12T00:05:33.446Z,0
2016-05-12T00:06:33.807Z,0
2016-05-12T00:07:33.857Z,0
2016-05-12T00:08:33.735Z,0
2016-05-12T00:09:33.924Z,0
2016-05-12T00:10:33.819Z,0
2016-05-12T00:11:33.993Z,0
2016-05-12T00:12:34.027Z,0
2016-05-12T00:13:33.921Z,0
2016-05-12T00:14:34.110Z,0
2016-05-12T00:15:34.144Z,0
2016-05-12T00:16:34.178Z,0
2016-05-12T00:17:34.228Z,0
2016-05-12T00:18:34.106Z,0
2016-05-12T00:19:34.312Z,0
2016-05-12T00:20:34.345Z,0
2016-05-12T00:21:34.395Z,0
2016-05-12T00:22:34.272Z,0
2016-05-12T00:23:34.463Z,0
2016-05-12T00:24:34.357Z,0
2016-05-12T00:25:34.406Z,0
2016-05-12T00:26:34.267Z,0
2016-05-12T00:27:34.630Z,0
2016-05-12T00:28:34.522Z,0
2016-05-12T00:29:34.556Z,0
2016-05-12T00:30:34.747Z,0
2016-05-12T00:31:34.641Z,0
2016-05-12T00:32:34.831Z,0
2016-05-12T00:33:34.708Z,0
2016-05-12T00:34:34.742Z,0
2016-05-12T00:35:34.933Z,0
2016-05-12T00:36:34.982Z,0
2016-05-12T00:37:35.016Z,0
2016-05-12T00:38:35.066Z,0
2016-05-12T00:39:35.100Z,0
2016-05-12T00:40:35.149Z,0
2016-05-12T00:41:35.168Z,0
2016-05-12T00:42:35.060Z,0
2016-05-12T00:43:35.126Z,0
2016-05-12T00:44:35.284Z,0
2016-05-12T00:45:35.334Z,0
2016-05-12T00:46:35.697Z,0
2016-05-12T00:47:35.418Z,0
2016-05-12T00:48:35.468Z,0
2016-05-12T00:49:35.517Z,0
2016-05-12T00:50:35.535Z,0
2016-05-12T00:51:35.428Z,0
2016-05-12T00:52:35.447Z,0
2016-05-12T00:53:35.653Z,0
2016-05-12T00:54:35.687Z,0
2016-05-12T00:55:35.736Z,0
2016-05-12T00:56:35.770Z,0
2016-05-12T00:57:35.820Z,0
2016-05-12T00:58:35.854Z,0
2016-05-12T00:59:35.731Z,0
2016-05-12T01:00:35.936Z,0
2016-05-12T01:01:36.112Z,0
2016-05-12T01:02:36.006Z,0
2016-05-12T01:03:35.930Z,0
2016-05-12T01:04:36.088Z,0
2016-05-12T01:05:36.138Z,0
2016-05-12T01:06:36.172Z,0
2016-05-12T01:07:36.066Z,0
2016-05-12T01:08:36.084Z,0
2016-05-12T01:09:36.289Z,0
2016-05-12T01:10:36.339Z,0
2016-05-12T01:11:36.232Z,0
2016-05-12T01:12:36.266Z,0
2016-05-12T01:13:36.129Z,0
2016-05-12T01:14:36.335Z,0
2016-05-12T01:15:36.525Z,0
2016-05-12T01:16:36.574Z,0
2016-05-12T01:17:36.623Z,0
2016-05-12T01:18:36.657Z,0
2016-05-12T01:19:36.691Z,0
2016-05-12T01:20:36.568Z,0
2016-05-12T01:21:36.447Z,0
2016-05-12T01:22:36.809Z,0
2016-05-12T01:23:36.843Z,0
2016-05-12T01:24:36.580Z,0
2016-05-12T01:25:36.770Z,0
2016-05-12T01:26:37.039Z,0
2016-05-12T01:27:37.025Z,0
2016-05-12T01:28:36.903Z,0
2016-05-12T01:29:37.093Z,0
2016-05-12T01:30:37.128Z,0
2016-05-12T01:31:37.458Z,0
2016-05-12T01:32:37.195Z,0
2016-05-12T01:33:37.244Z,0
2016-05-12T01:34:37.294Z,0
2016-05-12T01:35:37.328Z,0
2016-05-12T01:36:37.222Z,0
2016-05-12T01:37:37.240Z,0
2016-05-12T01:38:37.492Z,0
2016-05-12T01:39:37.480Z,0
2016-05-12T01:40:37.513Z,0
2016-05-12T01:41:37.580Z,0
2016-05-12T01:42:37.597Z,0
2016-05-12T01:43:37.521Z,0
2016-05-12T01:44:37.680Z,0
2016-05-12T01:45:37.715Z,0
2016-05-12T01:46:38.311Z,0
2016-05-12T01:47:37.798Z,0
2016-05-12T01:48:37.691Z,0
2016-05-12T01:49:37.882Z,0
2016-05-12T01:50:37.915Z,0
2016-05-12T01:51:37.965Z,0
2016-05-12T01:52:37.999Z,0
2016-05-12T01:53:38.048Z,0
2016-05-12T01:54:37.926Z,0
2016-05-12T01:55:38.117Z,0
2016-05-12T01:56:38.182Z,0
2016-05-12T01:57:38.200Z,0
2016-05-12T01:58:38.234Z,0
2016-05-12T01:59:37.971Z,0
2016-05-12T02:00:38.333Z,0
2016-05-12T02:01:38.382Z,0
2016-05-12T02:02:38.244Z,0
2016-05-12T02:03:38.451Z,0
2016-05-12T02:04:38.469Z,0
2016-05-12T02:05:38.518Z,0
2016-05-12T02:06:38.567Z,0
2016-05-12T02:07:38.586Z,0
2016-05-12T02:08:38.620Z,0
2016-05-12T02:09:38.685Z,0
2016-05-12T02:10:38.719Z,0
2016-05-12T02:11:38.753Z,0
2016-05-12T02:12:38.802Z,0
2016-05-12T02:13:38.821Z,0
2016-05-12T02:14:38.871Z,0
2016-05-12T02:15:38.904Z,0
2016-05-12T02:16:39.111Z,0
2016-05-12T02:17:38.832Z,0
2016-05-12T02:18:39.021Z,0
2016-05-12T02:19:38.916Z,0
2016-05-12T02:20:39.105Z,0
2016-05-12T02:21:39.140Z,0
2016-05-12T02:22:39.173Z,0
2016-05-12T02:23:39.067Z,0
2016-05-12T02:24:39.273Z,0
2016-05-12T02:25:39.182Z,0
2016-05-12T02:26:39.184Z,0
2016-05-12T02:27:39.390Z,0
2016-05-12T02:28:39.423Z,0
2016-05-12T02:29:39.458Z,0
2016-05-12T02:30:39.492Z,0
2016-05-12T02:31:39.698Z,0
2016-05-12T02:32:39.607Z,0
2016-05-12T02:33:39.625Z,0
2016-05-12T02:34:39.814Z,0
2016-05-12T02:35:39.693Z,0
2016-05-12T02:36:39.758Z,0
2016-05-12T02:37:39.635Z,0
2016-05-12T02:38:39.842Z,0
2016-05-12T02:39:39.906Z,0
2016-05-12T02:40:39.753Z,0
2016-05-12T02:41:39.944Z,0
2016-05-12T02:42:40.024Z,0
2016-05-12T02:43:40.011Z,0
2016-05-12T02:44:40.060Z,0
2016-05-12T02:45:39.797Z,0
2016-05-12T02:46:40.379Z,0
2016-05-12T02:47:40.194Z,0
2016-05-12T02:48:40.227Z,0
2016-05-12T02:49:40.262Z,0
2016-05-12T02:50:40.311Z,0
2016-05-12T02:51:40.346Z,0
2016-05-12T02:52:40.363Z,0
2016-05-12T02:53:40.288Z,0
2016-05-12T02:54:40.462Z,0
2016-05-12T02:55:40.340Z,0
2016-05-12T02:56:40.545Z,0
2016-05-12T02:57:40.564Z,0
2016-05-12T02:58:40.615Z,0
2016-05-12T02:59:40.492Z,0
2016-05-12T03:00:40.713Z,0
2016-05-12T03:01:41.075Z,0
2016-05-12T03:02:40.765Z,0
2016-05-12T03:03:40.799Z,0
2016-05-12T03:04:40.849Z,0
2016-05-12T03:05:40.742Z,0
2016-05-12T03:06:40.933Z,0
2016-05-12T03:07:40.981Z,0
2016-05-12T03:08:41.000Z,0
2016-05-12T03:09:41.050Z,0
2016-05-12T03:10:41.084Z,0
2016-05-12T03:11:41.133Z,0
2016-05-12T03:12:41.167Z,0
2016-05-12T03:13:41.202Z,0
2016-05-12T03:14:41.250Z,0
2016-05-12T03:15:41.285Z,0
2016-05-12T03:16:42.130Z,0
2016-05-12T03:17:41.213Z,0
2016-05-12T03:18:41.246Z,0
2016-05-12T03:19:41.280Z,0
2016-05-12T03:20:41.330Z,0
2016-05-12T03:21:41.363Z,0
2016-05-12T03:22:41.396Z,0
2016-05-12T03:23:41.603Z,0
2016-05-12T03:24:41.637Z,0
2016-05-12T03:25:41.687Z,0
2016-05-12T03:26:41.720Z,0
2016-05-12T03:27:41.754Z,0
2016-05-12T03:28:41.804Z,0
2016-05-12T03:29:41.681Z,0
2016-05-12T03:30:41.590Z,0
2016-05-12T03:31:42.406Z,0
2016-05-12T03:32:41.815Z,0
2016-05-12T03:33:41.676Z,0
2016-05-12T03:34:42.054Z,0
2016-05-12T03:35:41.916Z,0
2016-05-12T03:36:41.981Z,5
2016-05-12T03:37:42.000Z,5
2016-05-12T03:38:42.190Z,5
2016-05-12T03:39:42.240Z,5
2016-05-12T03:40:42.274Z,5
2016-05-12T03:41:42.307Z,5
2016-05-12T03:42:42.357Z,5
2016-05-12T03:43:42.391Z,5
2016-05-12T03:44:42.269Z,5
2016-05-12T03:45:42.318Z,5
2016-05-12T03:46:43.602Z,5
2016-05-12T03:47:42.558Z,5
2016-05-12T03:48:42.280Z,5
2016-05-12T03:49:42.626Z,5
2016-05-12T03:50:42.519Z,5
2016-05-12T03:51:42.710Z,5
2016-05-12T03:52:42.588Z,5
2016-05-12T03:53:42.793Z,5
2016-05-12T03:54:42.827Z,5
2016-05-12T03:55:42.720Z,5
2016-05-12T03:56:42.942Z,5
2016-05-12T03:57:42.945Z,5
2016-05-12T03:58:42.979Z,5
2016-05-12T03:59:42.560Z,5
2016-05-12T04:00:43.062Z,10
2016-05-12T04:01:43.127Z,10
2016-05-12T04:02:43.161Z,10
2016-05-12T04:03:43.039Z,10
2016-05-12T04:04:43.073Z,10
2016-05-12T04:05:43.263Z,10
2016-05-12T04:06:43.297Z,10
2016-05-12T04:07:43.190Z,10
2016-05-12T04:08:43.083Z,10
2016-05-12T04:09:43.414Z,10
2016-05-12T04:10:43.464Z,10
2016-05-12T04:11:43.514Z,10
2016-05-12T04:12:43.531Z,10
2016-05-12T04:13:43.425Z,10
2016-05-12T04:14:43.630Z,10
2016-05-12T04:15:43.508Z,10
2016-05-12T04:16:43.714Z,10
2016-05-12T04:17:43.748Z,10
2016-05-12T04:18:43.783Z,10
2016-05-12T04:19:43.816Z,10
2016-05-12T04:20:43.694Z,10
2016-05-12T04:21:43.899Z,10
2016-05-12T04:22:43.933Z,10
2016-05-12T04:23:43.982Z,10
2016-05-12T04:24:44.017Z,10
2016-05-12T04:25:44.051Z,10
2016-05-12T04:26:44.085Z,10
2016-05-12T04:27:44.134Z,10
2016-05-12T04:28:44.199Z,10
2016-05-12T04:29:44.218Z,10
2016-05-12T04:30:44.252Z,15
2016-05-12T04:31:45.051Z,15
2016-05-12T04:32:44.335Z,15
2016-05-12T04:33:44.370Z,15
2016-05-12T04:34:44.262Z,15
2016-05-12T04:35:44.453Z,15
2016-05-12T04:36:44.345Z,15
2016-05-12T04:37:44.396Z,15
2016-05-12T04:38:44.571Z,15
2016-05-12T04:39:44.448Z,15
2016-05-12T04:40:44.513Z,15
2016-05-12T04:41:44.703Z,15
2016-05-12T04:42:44.580Z,15
2016-05-12T04:43:44.772Z,15
2016-05-12T04:44:58.962Z,15
2016-05-12T04:45:44.855Z,15
2016-05-12T04:46:45.655Z,15
2016-05-12T04:47:44.766Z,15
2016-05-12T04:48:44.972Z,15
2016-05-12T04:49:45.005Z,15
2016-05-12T04:50:44.884Z,15
2016-05-12T04:51:45.090Z,15
2016-05-12T04:52:44.968Z,15
2016-05-12T04:53:45.157Z,15
2016-05-12T04:54:45.207Z,15
2016-05-12T04:55:45.257Z,15
2016-05-12T04:56:45.135Z,15
2016-05-12T04:57:45.324Z,15
2016-05-12T04:58:45.359Z,15
2016-05-12T04:59:45.393Z,20
2016-05-12T05:00:45.457Z,20
2016-05-12T05:01:45.788Z,20
2016-05-12T05:02:45.540Z,20
2016-05-12T05:03:45.576Z,20
2016-05-12T05:04:45.453Z,20
2016-05-12T05:05:45.659Z,20
2016-05-12T05:06:45.677Z,20
2016-05-12T05:07:45.726Z,20
2016-05-12T05:08:45.761Z,20
2016-05-12T05:09:45.794Z,20
2016-05-12T05:10:45.844Z,20
2016-05-12T05:11:45.909Z,20
2016-05-12T05:12:45.912Z,20
2016-05-12T05:13:45.961Z,20
2016-05-12T05:14:45.995Z,20
2016-05-12T05:15:46.044Z,20
2016-05-12T05:16:46.641Z,20
2016-05-12T05:17:46.113Z,20
2016-05-12T05:18:46.163Z,20
2016-05-12T05:19:46.196Z,20
2016-05-12T05:20:46.246Z,20
2016-05-12T05:21:46.124Z,20
2016-05-12T05:22:46.313Z,20
2016-05-12T05:23:46.208Z,20
2016-05-12T05:24:46.397Z,20
2016-05-12T05:25:46.432Z,20
2016-05-12T05:26:46.480Z,20
2016-05-12T05:27:46.515Z,20
2016-05-12T05:28:46.235Z,20
2016-05-12T05:29:46.598Z,20
2016-05-12T05:30:46.632Z,20
2016-05-12T05:31:46.573Z,20
2016-05-12T05:32:46.715Z,20
2016-05-12T05:33:46.749Z,20
2016-05-12T05:34:46.784Z,20
2016-05-12T05:35:46.833Z,20
2016-05-12T05:36:46.711Z,20
2016-05-12T05:37:46.447Z,20
2016-05-12T05:38:46.951Z,20
2016-05-12T05:39:46.829Z,20
2016-05-12T05:40:47.034Z,20
2016-05-12T05:41:47.068Z,20
2016-05-12T05:42:47.117Z,20
2016-05-12T05:43:46.994Z,20
2016-05-12T05:44:47.186Z,20
2016-05-12T05:45:47.078Z,20
2016-05-12T05:46:47.269Z,20
2016-05-12T05:47:47.319Z,20
2016-05-12T05:48:47.336Z,20
2016-05-12T05:49:47.386Z,20
2016-05-12T05:50:47.436Z,20
2016-05-12T05:51:47.469Z,20
2016-05-12T05:52:47.207Z,20
2016-05-12T05:53:47.552Z,20
2016-05-12T05:54:47.602Z,20
2016-05-12T05:55:47.638Z,20
2016-05-12T05:56:47.530Z,20
2016-05-12T05:57:47.704Z,20
2016-05-12T05:58:47.738Z,20
2016-05-12T05:59:47.648Z,25
2016-05-12T06:00:47.666Z,25
2016-05-12T06:01:48.621Z,25
2016-05-12T06:02:47.921Z,25
2016-05-12T06:03:48.143Z,25
2016-05-12T06:04:48.005Z,25
2016-05-12T06:05:48.023Z,25
2016-05-12T06:06:47.917Z,25
2016-05-12T06:07:48.106Z,25
2016-05-12T06:08:48.140Z,25
2016-05-12T06:09:48.189Z,25
2016-05-12T06:10:48.053Z,25
2016-05-12T06:11:47.789Z,25
2016-05-12T06:12:48.308Z,25
2016-05-12T06:13:48.185Z,25
2016-05-12T06:14:48.375Z,25
2016-05-12T06:15:48.253Z,25
2016-05-12T06:16:48.756Z,25
2016-05-12T06:17:48.352Z,25
2016-05-12T06:18:48.527Z,25
2016-05-12T06:19:48.577Z,25
2016-05-12T06:20:48.625Z,25
2016-05-12T06:21:48.503Z,25
2016-05-12T06:22:48.381Z,25
2016-05-12T06:23:48.571Z,25
2016-05-12T06:24:48.777Z,25
2016-05-12T06:25:48.655Z,25
2016-05-12T06:26:48.861Z,25
2016-05-12T06:27:48.910Z,25
2016-05-12T06:28:48.929Z,25
2016-05-12T06:29:48.963Z,25
2016-05-12T06:30:48.856Z,25
2016-05-12T06:31:48.593Z,25
2016-05-12T06:32:49.079Z,25
2016-05-12T06:33:49.115Z,25
2016-05-12T06:34:49.163Z,25
2016-05-12T06:35:49.197Z,25
2016-05-12T06:36:49.232Z,25
2016-05-12T06:37:49.296Z,25
2016-05-12T06:38:49.331Z,25
2016-05-12T06:39:49.193Z,25
2016-05-12T06:40:49.384Z,25
2016-05-12T06:41:49.432Z,25
2016-05-12T06:42:49.482Z,25
2016-05-12T06:43:49.500Z,25
2016-05-12T06:44:49.550Z,25
2016-05-12T06:45:49.584Z,25
2016-05-12T06:46:50.133Z,25
2016-05-12T06:47:49.667Z,25
2016-05-12T06:48:49.685Z,25
2016-05-12T06:49:49.778Z,25
2016-05-12T06:50:49.855Z,25
2016-05-12T06:51:49.931Z,25
2016-05-12T06:52:50.024Z,25
2016-05-12T06:53:49.945Z,25
2016-05-12T06:54:50.151Z,25
2016-05-12T06:55:50.232Z,25
2016-05-12T06:56:50.108Z,25
2016-05-12T06:57:50.345Z,25
2016-05-12T06:58:50.379Z,25
2016-05-12T06:59:50.418Z,30
2016-05-12T07:00:50.318Z,30
2016-05-12T07:01:50.215Z,30
2016-05-12T07:02:50.568Z,30
2016-05-12T07:03:50.606Z,30
2016-05-12T07:04:50.674Z,30
2016-05-12T07:05:50.538Z,30
2016-05-12T07:06:50.746Z,30
2016-05-12T07:07:50.782Z,30
2016-05-12T07:08:50.646Z,30
2016-05-12T07:09:50.853Z,30
2016-05-12T07:10:50.919Z,30
2016-05-12T07:11:50.765Z,30
2016-05-12T07:12:50.987Z,30
2016-05-12T07:13:50.850Z,30
2016-05-12T07:14:50.885Z,30
2016-05-12T07:15:51.091Z,30
2016-05-12T07:16:51.391Z,30
2016-05-12T07:17:51.159Z,30
2016-05-12T07:18:51.053Z,30
2016-05-12T07:19:50.947Z,30
2016-05-12T07:20:50.995Z,30
2016-05-12T07:21:51.327Z,30
2016-05-12T07:22:51.376Z,30
2016-05-12T07:23:51.098Z,30
2016-05-12T07:24:51.289Z,30
2016-05-12T07:25:51.478Z,30
2016-05-12T07:26:51.371Z,30
2016-05-12T07:27:51.406Z,35
2016-05-12T07:28:51.596Z,25
2016-05-12T07:29:51.474Z,35
2016-05-12T07:30:51.695Z,35
2016-05-12T07:31:51.807Z,35
2016-05-12T07:32:51.778Z,40
2016-05-12T07:33:51.641Z,40
2016-05-12T07:34:51.862Z,40
2016-05-12T07:35:51.724Z,40
2016-05-12T07:36:51.914Z,40
2016-05-12T07:37:51.963Z,40
2016-05-12T07:38:51.998Z,40
2016-05-12T07:39:51.876Z,40
2016-05-12T07:40:52.082Z,40
2016-05-12T07:41:51.256Z,40
2016-05-12T07:42:51.993Z,40
2016-05-12T07:43:52.182Z,40
2016-05-12T07:44:52.233Z,40
2016-05-12T07:45:52.282Z,35
2016-05-12T07:46:52.176Z,40
2016-05-12T07:47:52.209Z,40
2016-05-12T07:48:52.243Z,40
2016-05-12T07:49:52.434Z,40
2016-05-12T07:50:52.311Z,40
2016-05-12T07:51:52.502Z,40
2016-05-12T07:52:52.395Z,40
2016-05-12T07:53:52.585Z,35
2016-05-12T07:54:52.619Z,35
2016-05-12T07:55:52.669Z,35
2016-05-12T07:56:52.562Z,35
2016-05-12T07:57:52.595Z,35
2016-05-12T07:58:52.786Z,35
2016-05-12T07:59:52.694Z,35
2016-05-12T08:00:52.713Z,35
2016-05-12T08:01:52.606Z,40
2016-05-12T08:02:52.953Z,40
2016-05-12T08:03:52.674Z,40
2016-05-12T08:04:52.880Z,40
2016-05-12T08:05:53.055Z,40
2016-05-12T08:06:53.089Z,40
2016-05-12T08:07:53.154Z,40
2016-05-12T08:08:53.187Z,40
2016-05-12T08:09:53.222Z,40
2016-05-12T08:10:53.272Z,40
2016-05-12T08:11:52.993Z,40
2016-05-12T08:12:53.340Z,40
2016-05-12T08:13:53.373Z,40
2016-05-12T08:14:53.407Z,40
2016-05-12T08:15:53.457Z,40
2016-05-12T08:16:54.443Z,40
2016-05-12T08:17:53.541Z,40
2016-05-12T08:18:53.590Z,35
2016-05-12T08:19:53.451Z,45
2016-05-12T08:20:53.502Z,45
2016-05-12T08:21:53.707Z,45
2016-05-12T08:22:53.584Z,45
2016-05-12T08:23:53.775Z,45
2016-05-12T08:24:53.668Z,45
2016-05-12T08:25:53.686Z,45
2016-05-12T08:26:53.877Z,45
2016-05-12T08:27:53.786Z,45
2016-05-12T08:28:53.960Z,45
2016-05-12T08:29:53.869Z,45
2016-05-12T08:31:08.341Z,45
2016-05-12T08:31:53.656Z,45
2016-05-12T08:32:54.128Z,45
2016-05-12T08:33:54.162Z,45
2016-05-12T08:34:54.055Z,45
2016-05-12T08:35:54.261Z,45
2016-05-12T08:36:53.982Z,45
2016-05-12T08:37:54.328Z,45
2016-05-12T08:38:54.363Z,45
2016-05-12T08:39:54.396Z,45
2016-05-12T08:40:54.133Z,45
2016-05-12T08:41:54.354Z,45
2016-05-12T08:42:54.373Z,45
2016-05-12T08:43:54.407Z,45
2016-05-12T08:44:54.597Z,50
2016-05-12T08:45:54.631Z,50
2016-05-12T08:46:55.040Z,50
2016-05-12T08:47:54.574Z,50
2016-05-12T08:48:54.607Z,50
2016-05-12T08:49:54.814Z,50
2016-05-12T08:50:54.848Z,50
2016-05-12T08:51:54.881Z,50
2016-05-12T08:52:54.931Z,50
2016-05-12T08:53:54.965Z,50
2016-05-12T08:54:55.030Z,50
2016-05-12T08:55:55.034Z,50
2016-05-12T08:56:55.083Z,50
2016-05-12T08:57:55.100Z,50
2016-05-12T08:58:54.854Z,50
2016-05-12T08:59:55.200Z,55
2016-05-12T09:00:55.077Z,55
2016-05-12T09:01:55.143Z,55
2016-05-12T09:02:55.333Z,55
2016-05-12T09:03:55.367Z,55
2016-05-12T09:04:55.400Z,55
2016-05-12T09:05:55.435Z,55
2016-05-12T09:06:57.610Z,55
2016-05-12T09:07:55.565Z,55
2016-05-12T09:08:58.958Z,55
2016-05-12T09:09:55.289Z,55
2016-05-12T09:10:55.636Z,55
2016-05-12T09:11:55.529Z,55
2016-05-12T09:12:55.719Z,55
2016-05-12T09:13:55.768Z,60
2016-05-12T09:14:55.819Z,65
2016-05-12T09:15:55.837Z,60
2016-05-12T09:16:56.215Z,60
2016-05-12T09:17:55.765Z,60
2016-05-12T09:18:55.642Z,60
2016-05-12T09:19:55.988Z,60
2016-05-12T09:20:55.726Z,60
2016-05-12T09:21:56.071Z,60
2016-05-12T09:22:55.965Z,60
2016-05-12T09:23:56.170Z,75
2016-05-12T09:24:56.204Z,75
2016-05-12T09:25:56.239Z,60
2016-05-12T09:26:56.116Z,60
2016-05-12T09:27:56.337Z,70
2016-05-12T09:28:56.372Z,65
2016-05-12T09:29:56.406Z,65
2016-05-12T09:30:56.127Z,65
2016-05-12T09:31:56.802Z,60
2016-05-12T09:32:56.383Z,65
2016-05-12T09:33:56.572Z,65
2016-05-12T09:34:56.606Z,65
2016-05-12T09:35:56.500Z,65
2016-05-12T09:36:56.691Z,65
2016-05-12T09:37:56.755Z,65
2016-05-12T09:38:56.461Z,65
2016-05-12T09:39:56.824Z,65
2016-05-12T09:40:56.841Z,65
2016-05-12T09:41:56.891Z,65
2016-05-12T09:42:56.784Z,65
2016-05-12T09:43:56.959Z,75
2016-05-12T09:44:57.024Z,95
2016-05-12T09:45:57.042Z,85
2016-05-12T09:46:57.452Z,70
2016-05-12T09:47:56.985Z,65
2016-05-12T09:48:57.176Z,60
2016-05-12T09:49:57.226Z,50
2016-05-12T09:50:57.259Z,95
2016-05-12T09:51:57.309Z,105
2016-05-12T09:52:57.326Z,135
2016-05-12T09:53:57.376Z,100
2016-05-12T09:55:01.473Z,65
2016-05-12T09:55:57.460Z,75
2016-05-12T09:56:57.494Z,100
2016-05-12T09:57:57.403Z,85
2016-05-12T09:58:57.264Z,60
2016-05-12T09:59:57.455Z,65
2016-05-12T10:00:57.520Z,70
2016-05-12T10:01:58.116Z,105
2016-05-12T10:02:57.761Z,80
2016-05-12T10:03:57.779Z,75
2016-05-12T10:04:57.516Z,80
2016-05-12T10:05:57.706Z,90
2016-05-12T10:06:57.896Z,90
2016-05-12T10:07:57.945Z,75
2016-05-12T10:08:57.980Z,75
2016-05-12T10:09:57.872Z,75
2016-05-12T10:10:58.063Z,75
2016-05-12T10:11:57.940Z,80
2016-05-12T10:12:58.146Z,80
2016-05-12T10:13:58.180Z,85
2016-05-12T10:14:58.229Z,105
2016-05-12T10:15:57.966Z,100
2016-05-12T10:16:58.266Z,110
2016-05-12T10:17:58.347Z,135
2016-05-12T10:18:58.241Z,115
2016-05-12T10:19:58.431Z,110
2016-05-12T10:20:58.496Z,145
2016-05-12T10:21:58.514Z,125
2016-05-12T10:22:58.565Z,125
2016-05-12T10:23:58.582Z,105
2016-05-12T10:24:58.648Z,105
2016-05-12T10:25:58.697Z,95
2016-05-12T10:26:58.559Z,100
2016-05-12T10:27:58.749Z,130
2016-05-12T10:28:58.642Z,120
2016-05-12T10:29:58.833Z,120
2016-05-12T10:30:58.725Z,110
2016-05-12T10:31:59.009Z,110
2016-05-12T10:32:58.826Z,95
2016-05-12T10:33:59.311Z,95
2016-05-12T10:34:58.892Z,100
2016-05-12T10:35:59.083Z,100
2016-05-12T10:36:59.117Z,125
2016-05-12T10:37:59.011Z,140
2016-05-12T10:38:59.200Z,125
2016-05-12T10:39:59.266Z,120
2016-05-12T10:40:59.143Z,105
2016-05-12T10:41:59.333Z,85
2016-05-12T10:42:59.399Z,100
2016-05-12T10:43:59.433Z,100
2016-05-12T10:44:59.482Z,100
2016-05-12T10:45:59.516Z,85
2016-05-12T10:46:59.660Z,90
2016-05-12T10:47:59.585Z,90
2016-05-12T10:48:59.634Z,80
2016-05-12T10:49:59.651Z,105
2016-05-12T10:50:59.561Z,120
2016-05-12T10:51:59.611Z,110
2016-05-12T10:52:59.613Z,105
2016-05-12T10:53:59.663Z,90
2016-05-12T10:54:59.853Z,115
2016-05-12T10:55:59.903Z,155
2016-05-12T10:56:59.484Z,125
2016-05-12T10:57:59.987Z,115
2016-05-12T10:58:59.864Z,140
2016-05-12T11:00:00.053Z,140
2016-05-12T11:00:59.962Z,135
2016-05-12T11:02:00.138Z,150
2016-05-12T11:03:00.186Z,160
2016-05-12T11:04:00.220Z,180
2016-05-12T11:05:00.130Z,165
2016-05-12T11:06:00.320Z,150
2016-05-12T11:07:00.198Z,150
2016-05-12T11:08:00.092Z,175
2016-05-12T11:09:00.124Z,185
2016-05-12T11:10:00.472Z,165
2016-05-12T11:11:00.506Z,135
2016-05-12T11:12:00.555Z,155
2016-05-12T11:13:00.589Z,145
2016-05-12T11:14:00.638Z,170
2016-05-12T11:15:00.532Z,135
2016-05-12T11:16:00.566Z,115
2016-05-12T11:17:00.943Z,90
2016-05-12T11:18:00.649Z,105
2016-05-12T11:19:00.683Z,115
2016-05-12T11:20:00.717Z,115
2016-05-12T11:21:00.923Z,110
2016-05-12T11:22:00.988Z,100
2016-05-12T11:23:01.021Z,170
2016-05-12T11:24:00.728Z,165
2016-05-12T11:25:01.106Z,155
2016-05-12T11:26:01.124Z,170
2016-05-12T11:27:01.189Z,155
2016-05-12T11:28:01.207Z,220
2016-05-12T11:29:01.101Z,240
2016-05-12T11:30:01.135Z,200
2016-05-12T11:31:01.356Z,180
2016-05-12T11:32:01.202Z,200
2016-05-12T11:33:01.424Z,180
2016-05-12T11:34:01.458Z,195
2016-05-12T11:35:01.350Z,220
2016-05-12T11:36:01.401Z,205
2016-05-12T11:37:01.575Z,145
2016-05-12T11:38:01.625Z,135
2016-05-12T11:39:01.658Z,115
2016-05-12T11:40:01.709Z,110
2016-05-12T11:41:01.742Z,145
2016-05-12T11:42:01.666Z,150
2016-05-12T11:43:01.686Z,205
2016-05-12T11:44:01.891Z,180
2016-05-12T11:45:01.753Z,110
2016-05-12T11:46:01.803Z,95
2016-05-12T11:47:02.196Z,90
2016-05-12T11:48:01.886Z,85
2016-05-12T11:49:02.076Z,90
2016-05-12T11:50:02.127Z,100
2016-05-12T11:51:02.176Z,125
2016-05-12T11:52:02.209Z,145
2016-05-12T11:53:02.102Z,180
2016-05-12T11:54:01.980Z,305
2016-05-12T11:55:02.202Z,315
2016-05-12T11:56:02.392Z,310
2016-05-12T11:57:02.410Z,295
2016-05-12T11:58:02.460Z,270
2016-05-12T11:59:02.181Z,275
2016-05-12T12:00:02.371Z,265
2016-05-12T12:01:02.578Z,260
2016-05-12T12:02:03.002Z,240
2016-05-12T12:03:02.662Z,130
2016-05-12T12:04:02.586Z,100
2016-05-12T12:05:02.619Z,95
2016-05-12T12:06:02.622Z,90
2016-05-12T12:07:02.844Z,90
2016-05-12T12:08:02.721Z,100
2016-05-12T12:09:02.756Z,110
2016-05-12T12:10:02.805Z,120
2016-05-12T12:11:02.838Z,115
2016-05-12T12:12:03.044Z,110
2016-05-12T12:13:03.078Z,105
2016-05-12T12:14:03.112Z,305
2016-05-12T12:15:03.255Z,480
2016-05-12T12:16:03.196Z,665
2016-05-12T12:17:02.824Z,705
2016-05-12T12:18:03.295Z,140
2016-05-12T12:19:03.344Z,205
2016-05-12T12:20:03.379Z,120
2016-05-12T12:21:03.412Z,105
2016-05-12T12:22:03.447Z,115
2016-05-12T12:23:03.340Z,120
2016-05-12T12:24:03.405Z,260
2016-05-12T12:25:03.610Z,265
2016-05-12T12:26:03.301Z,265
2016-05-12T12:27:03.648Z,270
2016-05-12T12:28:03.696Z,280
2016-05-12T12:29:03.746Z,315
2016-05-12T12:30:03.795Z,350
2016-05-12T12:31:03.829Z,310
2016-05-12T12:32:04.677Z,300
2016-05-12T12:33:03.898Z,320
2016-05-12T12:34:03.478Z,245
2016-05-12T12:35:03.684Z,165
2016-05-12T12:36:04.047Z,140
2016-05-12T12:37:04.081Z,160
2016-05-12T12:38:04.115Z,1020
2016-05-12T12:39:04.164Z,345
2016-05-12T12:40:04.198Z,445
2016-05-12T12:41:04.264Z,120
2016-05-12T12:42:04.141Z,85
2016-05-12T12:43:04.316Z,510
2016-05-12T12:44:04.364Z,1515
2016-05-12T12:45:04.102Z,1555
2016-05-12T12:46:04.464Z,1650
2016-05-12T12:47:04.747Z,1690
2016-05-12T12:48:04.375Z,1585
2016-05-12T12:49:04.440Z,1720
2016-05-12T12:50:04.616Z,1760
2016-05-12T12:51:04.680Z,1565
2016-05-12T12:52:04.699Z,630
2016-05-12T12:53:04.874Z,1750
2016-05-12T12:54:04.829Z,1780
2016-05-12T12:55:04.691Z,1810
2016-05-12T12:56:05.585Z,1800
2016-05-12T12:57:04.916Z,465
2016-05-12T12:58:04.824Z,420
2016-05-12T12:59:04.999Z,1435
2016-05-12T13:00:05.033Z,1595
2016-05-12T13:01:05.098Z,1670
2016-05-12T13:02:05.163Z,1620
2016-05-12T13:03:05.181Z,1715
2016-05-12T13:04:05.231Z,1680
2016-05-12T13:05:05.296Z,1725
2016-05-12T13:06:05.314Z,1790
2016-05-12T13:07:05.348Z,1715
2016-05-12T13:08:05.226Z,1730
2016-05-12T13:09:05.447Z,1720
2016-05-12T13:10:05.309Z,1415
2016-05-12T13:11:05.531Z,1040
2016-05-12T13:12:05.581Z,1195
2016-05-12T13:13:05.772Z,1505
2016-05-12T13:14:05.556Z,1665
2016-05-12T13:15:05.901Z,1710
2016-05-12T13:16:05.764Z,1650
2016-05-12T13:17:05.516Z,1655
2016-05-12T13:18:05.831Z,1635
2016-05-12T13:19:06.319Z,1620
2016-05-12T13:20:05.946Z,1765
2016-05-12T13:21:05.964Z,1655
2016-05-12T13:22:06.029Z,1725
2016-05-12T13:23:06.110Z,305
2016-05-12T13:24:06.113Z,245
2016-05-12T13:25:06.162Z,325
2016-05-12T13:26:06.040Z,340
2016-05-12T13:27:06.246Z,320
2016-05-12T13:28:06.296Z,220
2016-05-12T13:29:05.907Z,175
2016-05-12T13:30:06.379Z,165
2016-05-12T13:31:06.444Z,140
2016-05-12T13:32:06.041Z,135
2016-05-12T13:33:06.528Z,145
2016-05-12T13:34:06.421Z,195
2016-05-12T13:35:06.612Z,275
2016-05-12T13:36:06.504Z,325
2016-05-12T13:37:06.695Z,790
2016-05-12T13:38:06.760Z,1800
2016-05-12T13:39:06.778Z,1510
2016-05-12T13:40:06.687Z,905
2016-05-12T13:41:06.925Z,1210
2016-05-12T13:42:06.927Z,365
2016-05-12T13:43:06.977Z,1045
2016-05-12T13:44:06.855Z,1655
2016-05-12T13:45:07.060Z,1160
2016-05-12T13:46:07.110Z,525
2016-05-12T13:47:07.566Z,605
2016-05-12T13:48:07.193Z,260
2016-05-12T13:49:07.244Z,215
2016-05-12T13:50:07.291Z,195
2016-05-12T13:51:07.263Z,220
2016-05-12T13:52:07.095Z,220
2016-05-12T13:53:07.425Z,175
2016-05-12T13:54:07.475Z,200
2016-05-12T13:55:07.571Z,200
2016-05-12T13:56:07.777Z,205
2016-05-12T13:57:07.452Z,350
2016-05-12T13:58:07.971Z,595
2016-05-12T13:59:08.098Z,635
2016-05-12T14:00:08.038Z,560
2016-05-12T14:01:07.791Z,435
2016-05-12T14:02:10.074Z,330
2016-05-12T14:03:07.890Z,260
2016-05-12T14:04:07.923Z,220
2016-05-12T14:05:07.801Z,220
2016-05-12T14:06:08.039Z,190
2016-05-12T14:07:08.041Z,180
2016-05-12T14:08:08.091Z,185
2016-05-12T14:09:07.828Z,200
2016-05-12T14:10:08.174Z,180
2016-05-12T14:11:08.083Z,165
2016-05-12T14:12:08.492Z,155
2016-05-12T14:13:08.323Z,160
2016-05-12T14:14:08.201Z,160
2016-05-12T14:15:08.234Z,170